This is the latest recevied weather packets stored in our database for station/object WZ9ZZZ-1. If no packets are shown the sender has not sent any weather packets the latest 10 day(s).
| Time | Temp. | Humidity | Pressure | Rain* | Wind** | Luminosity | Snow |
|---|---|---|---|---|---|---|---|
| 1777407891 | 30.56° C | 74% | 1017.3 hPa | 0 mm | - | 619 W/m² | - |
| 1777407589 | 30.56° C | 73% | 1017.3 hPa | 0 mm | - | 668 W/m² | - |
| 1777407289 | 30° C | 75% | 1017.4 hPa | 0 mm | - | 653 W/m² | - |
| 1777406983 | 29.44° C | 75% | 1017.3 hPa | 0 mm | - | 653 W/m² | - |
| 1777406683 | 30° C | 75% | 1017.4 hPa | 0 mm | - | 591 W/m² | - |
| 1777406379 | 30° C | 74% | 1017.5 hPa | 0 mm | - | 684 W/m² | - |
| 1777406078 | 29.44° C | 76% | 1017.6 hPa | 0 mm | - | 580 W/m² | - |
| 1777405775 | 29.44° C | 77% | 1017.5 hPa | 0 mm | - | 673 W/m² | - |
| 1777405471 | 30° C | 76% | 1017.7 hPa | 0 mm | - | 668 W/m² | - |
| 1777405170 | 29.44° C | 76% | 1017.7 hPa | 0 mm | - | 685 W/m² | - |
| 1777404866 | 30° C | 75% | 1017.8 hPa | 0 mm | - | 730 W/m² | - |
| 1777404564 | 28.89° C | 78% | 1018 hPa | 0 mm | - | 772 W/m² | - |
| 1777404260 | 29.44° C | 77% | 1018.2 hPa | 0 mm | - | 711 W/m² | - |
| 1777403956 | 29.44° C | 77% | 1018.3 hPa | 0 mm | - | 271 W/m² | - |
| 1777403650 | 29.44° C | 77% | 1018.1 hPa | 0 mm | - | 284 W/m² | - |
| 1777403350 | 29.44° C | 77% | 1018.1 hPa | 0 mm | - | 383 W/m² | - |
| 1777403044 | 29.44° C | 77% | 1018.5 hPa | 0 mm | - | 848 W/m² | - |
| 1777402740 | 28.89° C | 77% | 1018.2 hPa | 0 mm | - | 702 W/m² | - |
| 1777402436 | 29.44° C | 77% | 1018.4 hPa | 0 mm | - | 765 W/m² | - |
| 1777402134 | 30° C | 75% | 1018.3 hPa | 0 mm | - | 292 W/m² | - |
| 1777401829 | 30° C | 75% | 1018.4 hPa | 0 mm | - | 364 W/m² | - |
| 1777401529 | 29.44° C | 76% | 1018.3 hPa | 0 mm | - | 818 W/m² | - |
| 1777401224 | 30° C | 74% | 1018.2 hPa | 0 mm | - | 311 W/m² | - |
| 1777400920 | 30° C | 75% | 1018.4 hPa | 0 mm | - | 319 W/m² | - |
| 1777400616 | 30° C | 74% | 1018.4 hPa | 0 mm | - | 318 W/m² | - |
* Rain latest hour (hover to see other rain measurements)
** Current wind speed in m/s (hover to see current wind gust speed)